sensor_id;sensor_type;location;lat;lon;timestamp;P1;durP1;ratioP1;P2;durP2;ratioP2
19585;SDS011;9939;49.246;9.106;2023-12-22T00:00:48;2.67;;;0.50;;
19585;SDS011;9939;49.246;9.106;2023-12-22T00:03:16;0.60;;;0.50;;
19585;SDS011;9939;49.246;9.106;2023-12-22T00:05:43;1.20;;;0.63;;
19585;SDS011;9939;49.246;9.106;2023-12-22T00:08:10;3.73;;;0.87;;
19585;SDS011;9939;49.246;9.106;2023-12-22T00:10:37;1.60;;;0.70;;
19585;SDS011;9939;49.246;9.106;2023-12-22T00:13:04;1.53;;;0.53;;
19585;SDS011;9939;49.246;9.106;2023-12-22T00:15:31;1.90;;;0.60;;
19585;SDS011;9939;49.246;9.106;2023-12-22T00:17:58;0.47;;;0.40;;
19585;SDS011;9939;49.246;9.106;2023-12-22T00:20:25;0.57;;;0.33;;
19585;SDS011;9939;49.246;9.106;2023-12-22T00:22:52;1.60;;;0.33;;
19585;SDS011;9939;49.246;9.106;2023-12-22T00:25:19;0.63;;;0.43;;
19585;SDS011;9939;49.246;9.106;2023-12-22T00:27:46;0.77;;;0.30;;
19585;SDS011;9939;49.246;9.106;2023-12-22T00:30:14;1.37;;;0.40;;
19585;SDS011;9939;49.246;9.106;2023-12-22T00:32:41;1.20;;;0.33;;
19585;SDS011;9939;49.246;9.106;2023-12-22T00:35:09;0.47;;;0.30;;
19585;SDS011;9939;49.246;9.106;2023-12-22T00:37:36;3.13;;;0.43;;
19585;SDS011;9939;49.246;9.106;2023-12-22T00:40:03;1.23;;;0.30;;
19585;SDS011;9939;49.246;9.106;2023-12-22T00:42:33;3.10;;;0.40;;
19585;SDS011;9939;49.246;9.106;2023-12-22T00:45:00;1.10;;;0.37;;
19585;SDS011;9939;49.246;9.106;2023-12-22T00:47:28;0.73;;;0.30;;
19585;SDS011;9939;49.246;9.106;2023-12-22T00:49:55;3.27;;;0.60;;
19585;SDS011;9939;49.246;9.106;2023-12-22T00:52:22;1.10;;;0.40;;
19585;SDS011;9939;49.246;9.106;2023-12-22T00:54:49;1.07;;;0.30;;
19585;SDS011;9939;49.246;9.106;2023-12-22T00:57:17;0.97;;;0.30;;
19585;SDS011;9939;49.246;9.106;2023-12-22T00:59:44;2.50;;;0.50;;
19585;SDS011;9939;49.246;9.106;2023-12-22T01:02:14;0.63;;;0.37;;
19585;SDS011;9939;49.246;9.106;2023-12-22T01:04:42;1.13;;;0.30;;
19585;SDS011;9939;49.246;9.106;2023-12-22T01:07:10;3.87;;;0.57;;
19585;SDS011;9939;49.246;9.106;2023-12-22T01:09:37;0.83;;;0.40;;
19585;SDS011;9939;49.246;9.106;2023-12-22T01:12:05;2.10;;;0.40;;
19585;SDS011;9939;49.246;9.106;2023-12-22T01:14:33;3.00;;;0.40;;
19585;SDS011;9939;49.246;9.106;2023-12-22T01:17:01;1.10;;;0.40;;
19585;SDS011;9939;49.246;9.106;2023-12-22T01:19:28;0.40;;;0.37;;
19585;SDS011;9939;49.246;9.106;2023-12-22T01:21:55;1.07;;;0.53;;
19585;SDS011;9939;49.246;9.106;2023-12-22T01:24:22;2.87;;;0.60;;
19585;SDS011;9939;49.246;9.106;2023-12-22T01:26:49;1.70;;;0.50;;
19585;SDS011;9939;49.246;9.106;2023-12-22T01:29:16;1.60;;;0.40;;
19585;SDS011;9939;49.246;9.106;2023-12-22T01:31:43;2.57;;;0.87;;
19585;SDS011;9939;49.246;9.106;2023-12-22T01:34:10;1.70;;;0.50;;
19585;SDS011;9939;49.246;9.106;2023-12-22T01:36:37;1.60;;;0.50;;
19585;SDS011;9939;49.246;9.106;2023-12-22T01:39:04;4.60;;;0.57;;
19585;SDS011;9939;49.246;9.106;2023-12-22T01:41:35;1.73;;;0.60;;
19585;SDS011;9939;49.246;9.106;2023-12-22T01:44:02;4.37;;;0.73;;
19585;SDS011;9939;49.246;9.106;2023-12-22T01:46:29;1.07;;;0.50;;
19585;SDS011;9939;49.246;9.106;2023-12-22T01:48:57;4.27;;;0.70;;
19585;SDS011;9939;49.246;9.106;2023-12-22T01:51:28;2.70;;;0.70;;
19585;SDS011;9939;49.246;9.106;2023-12-22T01:53:56;0.67;;;0.60;;
19585;SDS011;9939;49.246;9.106;2023-12-22T01:56:23;2.00;;;0.70;;
19585;SDS011;9939;49.246;9.106;2023-12-22T01:58:51;2.77;;;0.80;;
19585;SDS011;9939;49.246;9.106;2023-12-22T02:01:22;2.83;;;0.90;;
19585;SDS011;9939;49.246;9.106;2023-12-22T02:03:50;2.67;;;1.03;;
19585;SDS011;9939;49.246;9.106;2023-12-22T02:06:19;2.40;;;0.80;;
19585;SDS011;9939;49.246;9.106;2023-12-22T02:08:47;8.13;;;1.33;;
19585;SDS011;9939;49.246;9.106;2023-12-22T02:11:14;5.07;;;1.20;;
19585;SDS011;9939;49.246;9.106;2023-12-22T02:13:45;5.23;;;1.30;;
19585;SDS011;9939;49.246;9.106;2023-12-22T02:18:43;6.77;;;1.50;;
19585;SDS011;9939;49.246;9.106;2023-12-22T02:21:12;6.80;;;1.40;;
19585;SDS011;9939;49.246;9.106;2023-12-22T02:23:39;5.53;;;1.30;;
19585;SDS011;9939;49.246;9.106;2023-12-22T02:26:10;9.10;;;2.00;;
19585;SDS011;9939;49.246;9.106;2023-12-22T02:28:45;3.63;;;1.37;;
19585;SDS011;9939;49.246;9.106;2023-12-22T02:33:45;7.57;;;1.33;;
19585;SDS011;9939;49.246;9.106;2023-12-22T02:36:14;6.50;;;2.10;;
19585;SDS011;9939;49.246;9.106;2023-12-22T02:38:43;5.00;;;1.60;;
19585;SDS011;9939;49.246;9.106;2023-12-22T02:41:12;6.63;;;1.50;;
19585;SDS011;9939;49.246;9.106;2023-12-22T02:43:40;7.30;;;1.67;;
19585;SDS011;9939;49.246;9.106;2023-12-22T02:46:14;7.60;;;1.83;;
19585;SDS011;9939;49.246;9.106;2023-12-22T02:48:42;9.97;;;1.90;;
19585;SDS011;9939;49.246;9.106;2023-12-22T02:51:09;9.47;;;2.20;;
19585;SDS011;9939;49.246;9.106;2023-12-22T02:53:36;4.57;;;1.17;;
19585;SDS011;9939;49.246;9.106;2023-12-22T02:56:03;8.40;;;1.63;;
19585;SDS011;9939;49.246;9.106;2023-12-22T02:58:30;7.73;;;1.57;;
19585;SDS011;9939;49.246;9.106;2023-12-22T03:00:58;7.67;;;1.50;;
19585;SDS011;9939;49.246;9.106;2023-12-22T03:03:25;6.57;;;1.70;;
19585;SDS011;9939;49.246;9.106;2023-12-22T03:05:52;14.07;;;1.83;;
19585;SDS011;9939;49.246;9.106;2023-12-22T03:08:19;8.57;;;1.60;;
19585;SDS011;9939;49.246;9.106;2023-12-22T03:10:46;10.93;;;1.63;;
19585;SDS011;9939;49.246;9.106;2023-12-22T03:13:13;5.30;;;1.40;;
19585;SDS011;9939;49.246;9.106;2023-12-22T03:15:40;6.43;;;1.63;;
19585;SDS011;9939;49.246;9.106;2023-12-22T03:18:07;6.10;;;1.30;;
19585;SDS011;9939;49.246;9.106;2023-12-22T03:20:35;11.93;;;1.80;;
19585;SDS011;9939;49.246;9.106;2023-12-22T03:23:02;7.83;;;1.93;;
19585;SDS011;9939;49.246;9.106;2023-12-22T03:25:29;10.40;;;1.70;;
19585;SDS011;9939;49.246;9.106;2023-12-22T03:27:56;10.17;;;1.67;;
19585;SDS011;9939;49.246;9.106;2023-12-22T03:30:23;9.47;;;2.20;;
19585;SDS011;9939;49.246;9.106;2023-12-22T03:32:51;9.60;;;1.77;;
19585;SDS011;9939;49.246;9.106;2023-12-22T03:35:18;10.57;;;2.03;;
19585;SDS011;9939;49.246;9.106;2023-12-22T03:37:45;5.57;;;1.60;;
19585;SDS011;9939;49.246;9.106;2023-12-22T03:40:12;7.07;;;1.70;;
19585;SDS011;9939;49.246;9.106;2023-12-22T03:42:40;6.27;;;1.27;;
19585;SDS011;9939;49.246;9.106;2023-12-22T03:45:07;6.43;;;1.30;;
19585;SDS011;9939;49.246;9.106;2023-12-22T03:47:34;7.40;;;1.53;;
19585;SDS011;9939;49.246;9.106;2023-12-22T03:50:02;12.40;;;1.60;;
19585;SDS011;9939;49.246;9.106;2023-12-22T03:52:29;6.63;;;1.40;;
19585;SDS011;9939;49.246;9.106;2023-12-22T03:54:56;8.10;;;1.67;;
19585;SDS011;9939;49.246;9.106;2023-12-22T03:57:23;8.97;;;1.50;;
19585;SDS011;9939;49.246;9.106;2023-12-22T03:59:50;8.93;;;1.43;;
19585;SDS011;9939;49.246;9.106;2023-12-22T04:02:17;8.97;;;1.70;;
19585;SDS011;9939;49.246;9.106;2023-12-22T04:04:44;10.10;;;1.77;;
19585;SDS011;9939;49.246;9.106;2023-12-22T04:07:12;7.17;;;1.60;;
19585;SDS011;9939;49.246;9.106;2023-12-22T04:09:39;8.70;;;1.47;;
19585;SDS011;9939;49.246;9.106;2023-12-22T04:12:06;10.53;;;1.83;;
19585;SDS011;9939;49.246;9.106;2023-12-22T04:14:33;11.20;;;1.83;;
19585;SDS011;9939;49.246;9.106;2023-12-22T04:17:00;11.13;;;1.60;;
19585;SDS011;9939;49.246;9.106;2023-12-22T04:19:27;7.10;;;1.57;;
19585;SDS011;9939;49.246;9.106;2023-12-22T04:21:55;9.33;;;1.73;;
19585;SDS011;9939;49.246;9.106;2023-12-22T04:24:22;8.73;;;1.70;;
19585;SDS011;9939;49.246;9.106;2023-12-22T04:26:49;10.23;;;1.80;;
19585;SDS011;9939;49.246;9.106;2023-12-22T04:29:16;8.80;;;1.70;;
19585;SDS011;9939;49.246;9.106;2023-12-22T04:31:43;5.60;;;1.50;;
19585;SDS011;9939;49.246;9.106;2023-12-22T04:34:13;9.43;;;1.50;;
19585;SDS011;9939;49.246;9.106;2023-12-22T04:36:41;8.63;;;1.63;;
19585;SDS011;9939;49.246;9.106;2023-12-22T04:39:08;4.83;;;1.10;;
19585;SDS011;9939;49.246;9.106;2023-12-22T04:41:35;4.97;;;1.20;;
19585;SDS011;9939;49.246;9.106;2023-12-22T04:44:02;3.43;;;0.70;;
19585;SDS011;9939;49.246;9.106;2023-12-22T04:46:30;6.23;;;1.13;;
19585;SDS011;9939;49.246;9.106;2023-12-22T04:48:57;7.07;;;1.00;;
19585;SDS011;9939;49.246;9.106;2023-12-22T04:51:25;4.07;;;1.00;;
19585;SDS011;9939;49.246;9.106;2023-12-22T04:53:52;5.10;;;1.20;;
19585;SDS011;9939;49.246;9.106;2023-12-22T04:56:19;5.43;;;1.30;;
19585;SDS011;9939;49.246;9.106;2023-12-22T04:58:47;7.60;;;1.40;;
19585;SDS011;9939;49.246;9.106;2023-12-22T05:01:14;8.73;;;1.37;;
19585;SDS011;9939;49.246;9.106;2023-12-22T05:03:41;4.93;;;1.27;;
19585;SDS011;9939;49.246;9.106;2023-12-22T05:06:08;11.23;;;1.47;;
19585;SDS011;9939;49.246;9.106;2023-12-22T05:08:36;5.27;;;1.30;;
19585;SDS011;9939;49.246;9.106;2023-12-22T05:11:03;6.40;;;1.20;;
19585;SDS011;9939;49.246;9.106;2023-12-22T05:13:31;3.90;;;1.20;;
19585;SDS011;9939;49.246;9.106;2023-12-22T05:15:58;8.60;;;1.60;;
19585;SDS011;9939;49.246;9.106;2023-12-22T05:18:25;4.60;;;1.37;;
19585;SDS011;9939;49.246;9.106;2023-12-22T05:20:52;5.23;;;1.20;;
19585;SDS011;9939;49.246;9.106;2023-12-22T05:23:20;6.20;;;1.23;;
19585;SDS011;9939;49.246;9.106;2023-12-22T05:25:47;6.60;;;1.73;;
19585;SDS011;9939;49.246;9.106;2023-12-22T05:28:14;3.97;;;1.20;;
19585;SDS011;9939;49.246;9.106;2023-12-22T05:30:42;5.30;;;1.00;;
19585;SDS011;9939;49.246;9.106;2023-12-22T05:33:09;5.80;;;1.40;;
19585;SDS011;9939;49.246;9.106;2023-12-22T05:35:36;9.50;;;1.40;;
19585;SDS011;9939;49.246;9.106;2023-12-22T05:38:06;7.40;;;1.73;;
19585;SDS011;9939;49.246;9.106;2023-12-22T05:40:33;3.23;;;1.13;;
19585;SDS011;9939;49.246;9.106;2023-12-22T05:43:00;5.73;;;1.17;;
19585;SDS011;9939;49.246;9.106;2023-12-22T05:45:27;8.07;;;1.37;;
19585;SDS011;9939;49.246;9.106;2023-12-22T05:47:55;6.90;;;1.13;;
19585;SDS011;9939;49.246;9.106;2023-12-22T05:50:22;6.33;;;1.30;;
19585;SDS011;9939;49.246;9.106;2023-12-22T05:52:49;10.87;;;1.73;;
19585;SDS011;9939;49.246;9.106;2023-12-22T05:55:16;6.77;;;1.60;;
19585;SDS011;9939;49.246;9.106;2023-12-22T05:57:44;10.27;;;1.80;;
19585;SDS011;9939;49.246;9.106;2023-12-22T06:00:12;8.80;;;1.50;;
19585;SDS011;9939;49.246;9.106;2023-12-22T06:02:41;14.77;;;1.63;;
19585;SDS011;9939;49.246;9.106;2023-12-22T06:05:08;10.60;;;2.10;;
19585;SDS011;9939;49.246;9.106;2023-12-22T06:07:35;6.97;;;1.73;;
19585;SDS011;9939;49.246;9.106;2023-12-22T06:10:03;11.47;;;1.77;;
19585;SDS011;9939;49.246;9.106;2023-12-22T06:12:30;7.70;;;1.80;;
19585;SDS011;9939;49.246;9.106;2023-12-22T06:14:57;9.13;;;1.87;;
19585;SDS011;9939;49.246;9.106;2023-12-22T06:17:24;10.70;;;2.00;;
19585;SDS011;9939;49.246;9.106;2023-12-22T06:19:51;8.90;;;1.97;;
19585;SDS011;9939;49.246;9.106;2023-12-22T06:22:18;8.67;;;1.90;;
19585;SDS011;9939;49.246;9.106;2023-12-22T06:24:46;8.60;;;1.77;;
19585;SDS011;9939;49.246;9.106;2023-12-22T06:27:13;10.60;;;2.00;;
19585;SDS011;9939;49.246;9.106;2023-12-22T06:29:40;11.30;;;1.87;;
19585;SDS011;9939;49.246;9.106;2023-12-22T06:32:07;8.37;;;1.77;;
19585;SDS011;9939;49.246;9.106;2023-12-22T06:34:34;11.23;;;1.73;;
19585;SDS011;9939;49.246;9.106;2023-12-22T06:37:01;8.57;;;1.77;;
19585;SDS011;9939;49.246;9.106;2023-12-22T06:39:29;12.73;;;1.73;;
19585;SDS011;9939;49.246;9.106;2023-12-22T06:41:56;9.07;;;1.53;;
19585;SDS011;9939;49.246;9.106;2023-12-22T06:44:23;12.60;;;2.00;;
19585;SDS011;9939;49.246;9.106;2023-12-22T06:46:52;11.10;;;1.80;;
19585;SDS011;9939;49.246;9.106;2023-12-22T06:49:19;10.83;;;1.73;;
19585;SDS011;9939;49.246;9.106;2023-12-22T06:51:46;10.90;;;2.07;;
19585;SDS011;9939;49.246;9.106;2023-12-22T06:54:14;11.37;;;1.83;;
19585;SDS011;9939;49.246;9.106;2023-12-22T06:56:43;10.37;;;1.67;;
19585;SDS011;9939;49.246;9.106;2023-12-22T06:59:10;12.33;;;1.63;;
19585;SDS011;9939;49.246;9.106;2023-12-22T07:01:41;7.20;;;2.00;;
19585;SDS011;9939;49.246;9.106;2023-12-22T07:04:21;9.90;;;1.90;;
19585;SDS011;9939;49.246;9.106;2023-12-22T07:06:48;12.07;;;2.27;;
19585;SDS011;9939;49.246;9.106;2023-12-22T07:11:47;12.20;;;2.17;;
19585;SDS011;9939;49.246;9.106;2023-12-22T07:14:17;7.33;;;1.70;;
19585;SDS011;9939;49.246;9.106;2023-12-22T07:16:45;7.23;;;1.50;;
19585;SDS011;9939;49.246;9.106;2023-12-22T07:19:12;9.47;;;1.70;;
19585;SDS011;9939;49.246;9.106;2023-12-22T07:21:40;8.90;;;1.73;;
19585;SDS011;9939;49.246;9.106;2023-12-22T07:24:10;9.87;;;1.73;;
19585;SDS011;9939;49.246;9.106;2023-12-22T07:26:39;10.57;;;1.63;;
19585;SDS011;9939;49.246;9.106;2023-12-22T07:29:07;7.50;;;1.53;;
19585;SDS011;9939;49.246;9.106;2023-12-22T07:31:34;6.43;;;1.50;;
19585;SDS011;9939;49.246;9.106;2023-12-22T07:34:01;12.33;;;2.00;;
19585;SDS011;9939;49.246;9.106;2023-12-22T07:36:29;5.63;;;1.03;;
19585;SDS011;9939;49.246;9.106;2023-12-22T07:38:56;8.07;;;1.43;;
19585;SDS011;9939;49.246;9.106;2023-12-22T07:41:24;8.90;;;1.47;;
19585;SDS011;9939;49.246;9.106;2023-12-22T07:43:51;5.90;;;1.00;;
19585;SDS011;9939;49.246;9.106;2023-12-22T07:46:18;6.03;;;0.97;;
19585;SDS011;9939;49.246;9.106;2023-12-22T07:48:46;3.77;;;1.03;;
19585;SDS011;9939;49.246;9.106;2023-12-22T07:51:15;5.40;;;1.37;;
19585;SDS011;9939;49.246;9.106;2023-12-22T07:53:42;4.77;;;1.07;;
19585;SDS011;9939;49.246;9.106;2023-12-22T07:56:10;4.23;;;1.33;;
19585;SDS011;9939;49.246;9.106;2023-12-22T07:58:38;7.60;;;1.67;;
19585;SDS011;9939;49.246;9.106;2023-12-22T08:01:06;7.23;;;1.17;;
19585;SDS011;9939;49.246;9.106;2023-12-22T08:03:33;10.47;;;1.63;;
19585;SDS011;9939;49.246;9.106;2023-12-22T08:06:00;5.90;;;1.27;;
19585;SDS011;9939;49.246;9.106;2023-12-22T08:08:27;6.67;;;1.70;;
19585;SDS011;9939;49.246;9.106;2023-12-22T08:10:55;8.37;;;1.70;;
19585;SDS011;9939;49.246;9.106;2023-12-22T08:13:22;5.57;;;1.20;;
19585;SDS011;9939;49.246;9.106;2023-12-22T08:15:49;10.57;;;1.53;;
19585;SDS011;9939;49.246;9.106;2023-12-22T08:18:17;5.97;;;2.10;;
19585;SDS011;9939;49.246;9.106;2023-12-22T08:20:44;4.17;;;1.00;;
19585;SDS011;9939;49.246;9.106;2023-12-22T08:23:14;6.20;;;1.67;;
19585;SDS011;9939;49.246;9.106;2023-12-22T08:25:43;5.33;;;1.20;;
19585;SDS011;9939;49.246;9.106;2023-12-22T08:28:11;6.83;;;1.23;;
19585;SDS011;9939;49.246;9.106;2023-12-22T08:30:40;5.47;;;1.17;;
19585;SDS011;9939;49.246;9.106;2023-12-22T08:33:07;6.70;;;1.33;;
19585;SDS011;9939;49.246;9.106;2023-12-22T08:35:34;8.60;;;1.50;;
19585;SDS011;9939;49.246;9.106;2023-12-22T08:38:01;7.17;;;1.80;;
19585;SDS011;9939;49.246;9.106;2023-12-22T08:40:29;6.40;;;1.40;;
19585;SDS011;9939;49.246;9.106;2023-12-22T08:42:57;8.07;;;1.50;;
19585;SDS011;9939;49.246;9.106;2023-12-22T08:45:27;9.27;;;1.60;;
19585;SDS011;9939;49.246;9.106;2023-12-22T08:47:55;7.27;;;1.87;;
19585;SDS011;9939;49.246;9.106;2023-12-22T08:50:23;10.57;;;2.00;;
19585;SDS011;9939;49.246;9.106;2023-12-22T08:52:51;10.13;;;2.30;;
19585;SDS011;9939;49.246;9.106;2023-12-22T08:55:19;17.13;;;2.50;;
19585;SDS011;9939;49.246;9.106;2023-12-22T08:57:46;8.27;;;1.80;;
19585;SDS011;9939;49.246;9.106;2023-12-22T09:00:25;13.07;;;1.83;;
19585;SDS011;9939;49.246;9.106;2023-12-22T09:02:52;4.67;;;1.77;;
19585;SDS011;9939;49.246;9.106;2023-12-22T09:05:20;9.07;;;2.10;;
19585;SDS011;9939;49.246;9.106;2023-12-22T09:07:48;9.70;;;2.43;;
19585;SDS011;9939;49.246;9.106;2023-12-22T09:10:16;9.80;;;2.20;;
19585;SDS011;9939;49.246;9.106;2023-12-22T09:12:44;14.83;;;2.03;;
19585;SDS011;9939;49.246;9.106;2023-12-22T09:15:11;11.97;;;2.57;;
19585;SDS011;9939;49.246;9.106;2023-12-22T09:17:39;11.87;;;2.40;;
19585;SDS011;9939;49.246;9.106;2023-12-22T09:20:10;15.13;;;2.60;;
19585;SDS011;9939;49.246;9.106;2023-12-22T09:22:38;16.13;;;3.33;;
19585;SDS011;9939;49.246;9.106;2023-12-22T09:25:05;13.47;;;3.50;;
19585;SDS011;9939;49.246;9.106;2023-12-22T09:27:32;15.57;;;2.73;;
19585;SDS011;9939;49.246;9.106;2023-12-22T09:30:00;18.80;;;3.03;;
19585;SDS011;9939;49.246;9.106;2023-12-22T09:32:27;10.27;;;2.50;;
19585;SDS011;9939;49.246;9.106;2023-12-22T09:34:55;12.87;;;3.33;;
19585;SDS011;9939;49.246;9.106;2023-12-22T09:37:25;13.07;;;2.97;;
19585;SDS011;9939;49.246;9.106;2023-12-22T09:39:53;20.00;;;3.93;;
19585;SDS011;9939;49.246;9.106;2023-12-22T09:42:21;19.43;;;3.43;;
19585;SDS011;9939;49.246;9.106;2023-12-22T09:44:51;13.40;;;3.33;;
19585;SDS011;9939;49.246;9.106;2023-12-22T09:47:21;19.33;;;3.43;;
19585;SDS011;9939;49.246;9.106;2023-12-22T09:49:49;20.80;;;3.60;;
19585;SDS011;9939;49.246;9.106;2023-12-22T09:52:18;24.17;;;3.10;;
19585;SDS011;9939;49.246;9.106;2023-12-22T09:54:45;22.73;;;3.77;;
19585;SDS011;9939;49.246;9.106;2023-12-22T09:57:15;22.07;;;3.27;;
19585;SDS011;9939;49.246;9.106;2023-12-22T09:59:53;22.50;;;4.23;;
19585;SDS011;9939;49.246;9.106;2023-12-22T10:02:23;18.67;;;3.70;;
19585;SDS011;9939;49.246;9.106;2023-12-22T10:04:54;20.23;;;3.13;;
19585;SDS011;9939;49.246;9.106;2023-12-22T10:07:21;25.23;;;2.90;;
19585;SDS011;9939;49.246;9.106;2023-12-22T10:09:49;19.87;;;3.87;;
19585;SDS011;9939;49.246;9.106;2023-12-22T10:12:17;14.17;;;3.70;;
19585;SDS011;9939;49.246;9.106;2023-12-22T10:14:46;16.13;;;3.27;;
19585;SDS011;9939;49.246;9.106;2023-12-22T10:17:14;17.87;;;3.30;;
19585;SDS011;9939;49.246;9.106;2023-12-22T10:19:42;17.20;;;3.00;;
19585;SDS011;9939;49.246;9.106;2023-12-22T10:22:09;18.50;;;3.13;;
19585;SDS011;9939;49.246;9.106;2023-12-22T10:27:14;16.50;;;3.27;;
19585;SDS011;9939;49.246;9.106;2023-12-22T10:29:43;20.50;;;3.57;;
19585;SDS011;9939;49.246;9.106;2023-12-22T10:32:10;19.43;;;3.47;;
19585;SDS011;9939;49.246;9.106;2023-12-22T10:34:37;22.07;;;2.97;;
19585;SDS011;9939;49.246;9.106;2023-12-22T10:37:04;16.73;;;4.00;;
19585;SDS011;9939;49.246;9.106;2023-12-22T10:39:32;20.43;;;4.07;;
19585;SDS011;9939;49.246;9.106;2023-12-22T10:41:59;29.07;;;4.07;;
19585;SDS011;9939;49.246;9.106;2023-12-22T10:44:27;20.67;;;4.07;;
19585;SDS011;9939;49.246;9.106;2023-12-22T10:46:55;16.30;;;3.03;;
19585;SDS011;9939;49.246;9.106;2023-12-22T10:49:24;19.17;;;3.63;;
19585;SDS011;9939;49.246;9.106;2023-12-22T10:51:52;24.63;;;3.77;;
19585;SDS011;9939;49.246;9.106;2023-12-22T10:54:19;22.70;;;3.93;;
19585;SDS011;9939;49.246;9.106;2023-12-22T10:56:46;17.53;;;3.47;;
19585;SDS011;9939;49.246;9.106;2023-12-22T10:59:16;19.07;;;3.50;;
19585;SDS011;9939;49.246;9.106;2023-12-22T11:01:45;18.53;;;3.17;;
19585;SDS011;9939;49.246;9.106;2023-12-22T11:04:17;16.73;;;3.10;;
19585;SDS011;9939;49.246;9.106;2023-12-22T11:06:47;19.53;;;4.33;;
19585;SDS011;9939;49.246;9.106;2023-12-22T11:09:16;23.03;;;3.47;;
19585;SDS011;9939;49.246;9.106;2023-12-22T11:11:46;19.37;;;2.87;;
19585;SDS011;9939;49.246;9.106;2023-12-22T11:14:15;22.00;;;3.40;;
19585;SDS011;9939;49.246;9.106;2023-12-22T11:16:43;19.40;;;3.63;;
19585;SDS011;9939;49.246;9.106;2023-12-22T11:19:15;23.57;;;3.93;;
19585;SDS011;9939;49.246;9.106;2023-12-22T11:21:42;20.53;;;3.47;;
19585;SDS011;9939;49.246;9.106;2023-12-22T11:24:10;19.47;;;3.77;;
19585;SDS011;9939;49.246;9.106;2023-12-22T11:26:43;22.40;;;3.90;;
19585;SDS011;9939;49.246;9.106;2023-12-22T11:29:14;19.53;;;3.60;;
19585;SDS011;9939;49.246;9.106;2023-12-22T11:31:42;17.20;;;3.50;;
19585;SDS011;9939;49.246;9.106;2023-12-22T11:34:13;17.70;;;3.50;;
19585;SDS011;9939;49.246;9.106;2023-12-22T11:36:45;21.83;;;3.77;;
19585;SDS011;9939;49.246;9.106;2023-12-22T11:39:14;16.17;;;3.10;;
19585;SDS011;9939;49.246;9.106;2023-12-22T11:41:41;29.17;;;4.30;;
19585;SDS011;9939;49.246;9.106;2023-12-22T11:44:10;24.07;;;3.63;;
19585;SDS011;9939;49.246;9.106;2023-12-22T11:46:37;23.70;;;3.90;;
19585;SDS011;9939;49.246;9.106;2023-12-22T11:49:05;24.33;;;4.30;;
19585;SDS011;9939;49.246;9.106;2023-12-22T11:51:33;19.57;;;3.43;;
19585;SDS011;9939;49.246;9.106;2023-12-22T11:54:03;20.10;;;3.20;;
19585;SDS011;9939;49.246;9.106;2023-12-22T11:56:50;15.93;;;3.17;;
19585;SDS011;9939;49.246;9.106;2023-12-22T11:59:18;20.77;;;3.57;;
19585;SDS011;9939;49.246;9.106;2023-12-22T12:01:47;22.37;;;4.00;;
19585;SDS011;9939;49.246;9.106;2023-12-22T12:04:21;18.60;;;3.33;;
19585;SDS011;9939;49.246;9.106;2023-12-22T12:06:48;18.43;;;3.43;;
19585;SDS011;9939;49.246;9.106;2023-12-22T12:09:15;18.03;;;3.17;;
19585;SDS011;9939;49.246;9.106;2023-12-22T12:12:12;13.47;;;2.63;;
19585;SDS011;9939;49.246;9.106;2023-12-22T12:14:40;15.93;;;3.20;;
19585;SDS011;9939;49.246;9.106;2023-12-22T12:17:09;13.17;;;2.30;;
19585;SDS011;9939;49.246;9.106;2023-12-22T12:19:39;7.87;;;2.27;;
19585;SDS011;9939;49.246;9.106;2023-12-22T12:22:11;13.43;;;2.30;;
19585;SDS011;9939;49.246;9.106;2023-12-22T12:24:41;13.27;;;2.43;;
19585;SDS011;9939;49.246;9.106;2023-12-22T12:27:09;12.87;;;2.67;;
19585;SDS011;9939;49.246;9.106;2023-12-22T12:29:36;15.77;;;2.60;;
19585;SDS011;9939;49.246;9.106;2023-12-22T12:32:05;14.90;;;2.97;;
19585;SDS011;9939;49.246;9.106;2023-12-22T12:34:32;7.27;;;2.23;;
19585;SDS011;9939;49.246;9.106;2023-12-22T12:37:01;13.20;;;2.53;;
19585;SDS011;9939;49.246;9.106;2023-12-22T12:39:30;14.93;;;2.20;;
19585;SDS011;9939;49.246;9.106;2023-12-22T12:42:00;11.37;;;2.37;;
19585;SDS011;9939;49.246;9.106;2023-12-22T12:44:29;12.30;;;2.17;;
19585;SDS011;9939;49.246;9.106;2023-12-22T12:46:59;12.10;;;2.27;;
19585;SDS011;9939;49.246;9.106;2023-12-22T12:49:37;7.17;;;1.57;;
19585;SDS011;9939;49.246;9.106;2023-12-22T12:52:04;10.87;;;1.70;;
19585;SDS011;9939;49.246;9.106;2023-12-22T12:54:32;8.30;;;1.60;;
19585;SDS011;9939;49.246;9.106;2023-12-22T12:56:59;11.10;;;1.90;;
19585;SDS011;9939;49.246;9.106;2023-12-22T12:59:26;12.57;;;2.20;;
19585;SDS011;9939;49.246;9.106;2023-12-22T13:01:54;6.83;;;1.40;;
19585;SDS011;9939;49.246;9.106;2023-12-22T13:04:21;9.53;;;1.50;;
19585;SDS011;9939;49.246;9.106;2023-12-22T13:06:49;6.60;;;1.57;;
19585;SDS011;9939;49.246;9.106;2023-12-22T13:09:17;2.80;;;1.23;;
19585;SDS011;9939;49.246;9.106;2023-12-22T13:11:45;6.87;;;1.23;;
19585;SDS011;9939;49.246;9.106;2023-12-22T13:14:23;5.43;;;1.40;;
19585;SDS011;9939;49.246;9.106;2023-12-22T13:16:54;6.33;;;1.60;;
19585;SDS011;9939;49.246;9.106;2023-12-22T13:19:24;4.30;;;1.20;;
19585;SDS011;9939;49.246;9.106;2023-12-22T13:21:55;4.50;;;1.57;;
19585;SDS011;9939;49.246;9.106;2023-12-22T13:24:23;6.43;;;1.47;;
19585;SDS011;9939;49.246;9.106;2023-12-22T13:27:02;10.07;;;2.70;;
19585;SDS011;9939;49.246;9.106;2023-12-22T13:29:41;7.10;;;2.60;;
19585;SDS011;9939;49.246;9.106;2023-12-22T13:32:20;4.57;;;1.47;;
19585;SDS011;9939;49.246;9.106;2023-12-22T13:34:52;4.73;;;1.80;;
19585;SDS011;9939;49.246;9.106;2023-12-22T13:37:20;5.70;;;2.20;;
19585;SDS011;9939;49.246;9.106;2023-12-22T13:39:50;6.90;;;2.20;;
19585;SDS011;9939;49.246;9.106;2023-12-22T13:42:18;7.83;;;2.23;;
19585;SDS011;9939;49.246;9.106;2023-12-22T13:44:48;4.27;;;1.80;;
19585;SDS011;9939;49.246;9.106;2023-12-22T13:47:16;7.87;;;2.63;;
19585;SDS011;9939;49.246;9.106;2023-12-22T13:49:43;5.23;;;1.83;;
19585;SDS011;9939;49.246;9.106;2023-12-22T13:52:29;5.47;;;1.70;;
19585;SDS011;9939;49.246;9.106;2023-12-22T13:55:02;6.60;;;2.77;;
19585;SDS011;9939;49.246;9.106;2023-12-22T13:57:36;8.03;;;3.13;;
19585;SDS011;9939;49.246;9.106;2023-12-22T14:02:46;5.13;;;2.00;;
19585;SDS011;9939;49.246;9.106;2023-12-22T14:05:16;3.47;;;1.40;;
19585;SDS011;9939;49.246;9.106;2023-12-22T14:07:44;3.53;;;1.40;;
19585;SDS011;9939;49.246;9.106;2023-12-22T14:10:11;5.50;;;1.80;;
19585;SDS011;9939;49.246;9.106;2023-12-22T14:12:39;6.47;;;1.60;;
19585;SDS011;9939;49.246;9.106;2023-12-22T14:15:07;3.87;;;1.60;;
19585;SDS011;9939;49.246;9.106;2023-12-22T14:17:35;3.60;;;1.60;;
19585;SDS011;9939;49.246;9.106;2023-12-22T14:20:03;5.00;;;1.60;;
19585;SDS011;9939;49.246;9.106;2023-12-22T14:22:37;3.27;;;1.67;;
19585;SDS011;9939;49.246;9.106;2023-12-22T14:25:04;2.83;;;1.20;;
19585;SDS011;9939;49.246;9.106;2023-12-22T14:27:32;4.33;;;1.43;;
19585;SDS011;9939;49.246;9.106;2023-12-22T14:29:59;3.13;;;1.60;;
19585;SDS011;9939;49.246;9.106;2023-12-22T14:32:26;2.23;;;1.27;;
19585;SDS011;9939;49.246;9.106;2023-12-22T14:34:56;2.37;;;0.90;;
19585;SDS011;9939;49.246;9.106;2023-12-22T14:37:23;2.87;;;1.27;;
19585;SDS011;9939;49.246;9.106;2023-12-22T14:39:50;2.57;;;1.13;;
19585;SDS011;9939;49.246;9.106;2023-12-22T14:42:18;2.83;;;1.60;;
19585;SDS011;9939;49.246;9.106;2023-12-22T14:44:45;1.47;;;1.10;;
19585;SDS011;9939;49.246;9.106;2023-12-22T14:47:12;4.37;;;1.70;;
19585;SDS011;9939;49.246;9.106;2023-12-22T14:49:40;4.20;;;1.30;;
19585;SDS011;9939;49.246;9.106;2023-12-22T14:52:07;2.70;;;1.10;;
19585;SDS011;9939;49.246;9.106;2023-12-22T14:54:35;1.77;;;1.10;;
19585;SDS011;9939;49.246;9.106;2023-12-22T14:57:02;3.23;;;0.90;;
19585;SDS011;9939;49.246;9.106;2023-12-22T14:59:29;2.70;;;1.00;;
19585;SDS011;9939;49.246;9.106;2023-12-22T15:01:56;2.77;;;0.93;;
19585;SDS011;9939;49.246;9.106;2023-12-22T15:04:23;3.00;;;1.20;;
19585;SDS011;9939;49.246;9.106;2023-12-22T15:06:51;1.83;;;0.90;;
19585;SDS011;9939;49.246;9.106;2023-12-22T15:09:27;2.67;;;1.50;;
19585;SDS011;9939;49.246;9.106;2023-12-22T15:11:54;3.07;;;1.40;;
19585;SDS011;9939;49.246;9.106;2023-12-22T15:14:22;2.93;;;1.13;;